sensor_id;sensor_type;location;lat;lon;timestamp;temperature;humidity
15355;DHT22;7777;52.254;9.618;2023-06-04T06:01:22;11.00;74.70
15355;DHT22;7777;52.254;9.618;2023-06-04T06:03:48;11.10;74.80
15355;DHT22;7777;52.254;9.618;2023-06-04T06:06:14;11.20;74.80
15355;DHT22;7777;52.254;9.618;2023-06-04T06:08:42;11.30;75.00
15355;DHT22;7777;52.254;9.618;2023-06-04T06:54:54;13.00;77.30
15355;DHT22;7777;52.254;9.618;2023-06-04T06:57:20;13.20;77.80
15355;DHT22;7777;52.254;9.618;2023-06-04T06:59:46;13.30;77.90
15355;DHT22;7777;52.254;9.618;2023-06-04T07:02:12;13.40;78.00
15355;DHT22;7777;52.254;9.618;2023-06-04T07:04:37;13.50;78.20
15355;DHT22;7777;52.254;9.618;2023-06-04T07:07:03;13.60;78.50
15355;DHT22;7777;52.254;9.618;2023-06-04T07:09:29;13.70;78.60
15355;DHT22;7777;52.254;9.618;2023-06-04T07:11:56;13.90;78.60
15355;DHT22;7777;52.254;9.618;2023-06-04T07:14:22;14.00;78.70
15355;DHT22;7777;52.254;9.618;2023-06-04T07:20:00;14.20;79.00
15355;DHT22;7777;52.254;9.618;2023-06-04T07:22:26;14.40;79.30
15355;DHT22;7777;52.254;9.618;2023-06-04T07:24:52;14.50;79.90
15355;DHT22;7777;52.254;9.618;2023-06-04T07:27:18;14.60;79.40
15355;DHT22;7777;52.254;9.618;2023-06-04T07:29:45;14.70;79.80
15355;DHT22;7777;52.254;9.618;2023-06-04T07:32:11;14.80;79.80
15355;DHT22;7777;52.254;9.618;2023-06-04T07:34:40;14.90;80.10
15355;DHT22;7777;52.254;9.618;2023-06-04T07:37:06;15.10;80.30
15355;DHT22;7777;52.254;9.618;2023-06-04T07:39:35;15.20;80.40
15355;DHT22;7777;52.254;9.618;2023-06-04T07:42:01;15.30;80.50
15355;DHT22;7777;52.254;9.618;2023-06-04T07:44:27;15.40;80.60
15355;DHT22;7777;52.254;9.618;2023-06-04T07:46:52;15.50;80.60
15355;DHT22;7777;52.254;9.618;2023-06-04T07:49:18;15.60;80.60
15355;DHT22;7777;52.254;9.618;2023-06-04T07:51:45;15.70;80.50
15355;DHT22;7777;52.254;9.618;2023-06-04T07:54:11;15.80;80.90
15355;DHT22;7777;52.254;9.618;2023-06-04T07:56:39;15.90;81.00
15355;DHT22;7777;52.254;9.618;2023-06-04T07:59:05;16.00;80.80
15355;DHT22;7777;52.254;9.618;2023-06-04T08:01:31;16.10;80.90
15355;DHT22;7777;52.254;9.618;2023-06-04T08:03:57;16.20;81.00
15355;DHT22;7777;52.254;9.618;2023-06-04T08:06:24;16.40;81.20
15355;DHT22;7777;52.254;9.618;2023-06-04T08:08:52;16.50;81.40
15355;DHT22;7777;52.254;9.618;2023-06-04T08:11:18;16.60;81.50
15355;DHT22;7777;52.254;9.618;2023-06-04T08:13:44;16.70;81.40
15355;DHT22;7777;52.254;9.618;2023-06-04T08:16:12;16.80;81.60
15355;DHT22;7777;52.254;9.618;2023-06-04T08:22:09;17.10;81.50
15355;DHT22;7777;52.254;9.618;2023-06-04T08:24:59;17.20;81.60
15355;DHT22;7777;52.254;9.618;2023-06-04T08:27:33;17.20;81.70
15355;DHT22;7777;52.254;9.618;2023-06-04T08:30:04;17.40;80.70
15355;DHT22;7777;52.254;9.618;2023-06-04T08:32:54;17.50;81.70
15355;DHT22;7777;52.254;9.618;2023-06-04T08:35:56;17.60;81.80
15355;DHT22;7777;52.254;9.618;2023-06-04T08:38:29;17.70;81.70
15355;DHT22;7777;52.254;9.618;2023-06-04T08:41:34;17.80;81.90
15355;DHT22;7777;52.254;9.618;2023-06-04T10:00:56;20.80;81.30
15355;DHT22;7777;52.254;9.618;2023-06-04T10:03:48;20.90;80.30
15355;DHT22;7777;52.254;9.618;2023-06-04T10:06:38;21.00;79.40
15355;DHT22;7777;52.254;9.618;2023-06-04T10:09:06;21.10;80.90
15355;DHT22;7777;52.254;9.618;2023-06-04T10:11:40;21.20;79.80
15355;DHT22;7777;52.254;9.618;2023-06-04T10:16:47;21.40;79.20
15355;DHT22;7777;52.254;9.618;2023-06-04T10:19:14;21.60;81.30
15355;DHT22;7777;52.254;9.618;2023-06-04T10:21:40;21.70;81.30
15355;DHT22;7777;52.254;9.618;2023-06-04T10:24:07;21.80;81.40
15355;DHT22;7777;52.254;9.618;2023-06-04T10:26:33;21.90;81.30
15355;DHT22;7777;52.254;9.618;2023-06-04T10:29:01;21.90;80.20
15355;DHT22;7777;52.254;9.618;2023-06-04T10:31:37;22.00;80.80
15355;DHT22;7777;52.254;9.618;2023-06-04T10:34:12;22.10;80.90
15355;DHT22;7777;52.254;9.618;2023-06-04T10:36:45;22.20;80.80
15355;DHT22;7777;52.254;9.618;2023-06-04T10:39:11;22.30;79.20
15355;DHT22;7777;52.254;9.618;2023-06-04T10:41:40;22.40;80.90
15355;DHT22;7777;52.254;9.618;2023-06-04T10:44:24;22.40;80.30
15355;DHT22;7777;52.254;9.618;2023-06-04T10:46:59;22.60;80.40
15355;DHT22;7777;52.254;9.618;2023-06-04T10:49:29;22.70;76.90
15355;DHT22;7777;52.254;9.618;2023-06-04T10:52:23;22.70;76.10
15355;DHT22;7777;52.254;9.618;2023-06-04T10:55:20;22.80;78.60
15355;DHT22;7777;52.254;9.618;2023-06-04T11:00:33;23.00;78.20
15355;DHT22;7777;52.254;9.618;2023-06-04T11:03:05;23.00;77.30
15355;DHT22;7777;52.254;9.618;2023-06-04T11:05:58;23.20;78.10
15355;DHT22;7777;52.254;9.618;2023-06-04T11:09:16;23.20;74.20
15355;DHT22;7777;52.254;9.618;2023-06-04T11:11:43;23.40;78.20
15355;DHT22;7777;52.254;9.618;2023-06-04T11:14:12;23.40;77.80
15355;DHT22;7777;52.254;9.618;2023-06-04T11:16:49;23.50;79.30
15355;DHT22;7777;52.254;9.618;2023-06-04T11:19:42;23.60;78.90
15355;DHT22;7777;52.254;9.618;2023-06-04T11:22:11;23.70;75.00
15355;DHT22;7777;52.254;9.618;2023-06-04T11:24:37;23.70;75.60
15355;DHT22;7777;52.254;9.618;2023-06-04T11:27:03;23.80;75.60
15355;DHT22;7777;52.254;9.618;2023-06-04T11:29:29;23.80;73.50
15355;DHT22;7777;52.254;9.618;2023-06-04T11:31:59;23.90;73.90
15355;DHT22;7777;52.254;9.618;2023-06-04T11:34:33;24.00;73.40
15355;DHT22;7777;52.254;9.618;2023-06-04T11:37:09;24.00;71.70
15355;DHT22;7777;52.254;9.618;2023-06-04T11:39:36;24.00;74.30
15355;DHT22;7777;52.254;9.618;2023-06-04T11:42:05;24.10;75.40
15355;DHT22;7777;52.254;9.618;2023-06-04T11:44:32;24.10;72.10
15355;DHT22;7777;52.254;9.618;2023-06-04T11:46:59;24.10;71.30
15355;DHT22;7777;52.254;9.618;2023-06-04T11:49:25;24.20;74.60
15355;DHT22;7777;52.254;9.618;2023-06-04T11:51:56;24.30;71.30
15355;DHT22;7777;52.254;9.618;2023-06-04T11:54:52;24.30;72.60
15355;DHT22;7777;52.254;9.618;2023-06-04T11:57:18;24.40;73.80
15355;DHT22;7777;52.254;9.618;2023-06-04T11:59:44;24.50;70.90
15355;DHT22;7777;52.254;9.618;2023-06-04T12:02:10;24.50;68.80
15355;DHT22;7777;52.254;9.618;2023-06-04T12:04:36;24.50;72.00
15355;DHT22;7777;52.254;9.618;2023-06-04T12:07:03;24.60;73.90
15355;DHT22;7777;52.254;9.618;2023-06-04T12:09:32;24.70;73.20
15355;DHT22;7777;52.254;9.618;2023-06-04T12:12:04;24.80;74.60
15355;DHT22;7777;52.254;9.618;2023-06-04T12:14:31;24.90;71.60
15355;DHT22;7777;52.254;9.618;2023-06-04T12:17:08;24.90;70.90
15355;DHT22;7777;52.254;9.618;2023-06-04T12:19:48;24.90;71.40
15355;DHT22;7777;52.254;9.618;2023-06-04T12:22:44;24.90;68.50
15355;DHT22;7777;52.254;9.618;2023-06-04T12:25:51;25.00;68.40
15355;DHT22;7777;52.254;9.618;2023-06-04T12:28:20;25.00;70.20
15355;DHT22;7777;52.254;9.618;2023-06-04T12:30:46;25.10;71.20
15355;DHT22;7777;52.254;9.618;2023-06-04T12:33:12;25.10;69.10
15355;DHT22;7777;52.254;9.618;2023-06-04T12:35:51;25.20;70.70
15355;DHT22;7777;52.254;9.618;2023-06-04T12:38:16;25.20;70.60
15355;DHT22;7777;52.254;9.618;2023-06-04T12:40:42;25.30;69.90
15355;DHT22;7777;52.254;9.618;2023-06-04T12:43:09;25.30;69.80
15355;DHT22;7777;52.254;9.618;2023-06-04T12:45:34;25.40;67.10
15355;DHT22;7777;52.254;9.618;2023-06-04T12:48:00;25.40;69.70
15355;DHT22;7777;52.254;9.618;2023-06-04T12:50:26;25.30;65.70
15355;DHT22;7777;52.254;9.618;2023-06-04T12:52:51;25.30;68.70
15355;DHT22;7777;52.254;9.618;2023-06-04T12:55:17;25.40;67.60
15355;DHT22;7777;52.254;9.618;2023-06-04T12:57:44;25.50;70.30
15355;DHT22;7777;52.254;9.618;2023-06-04T13:00:11;25.50;70.00
15355;DHT22;7777;52.254;9.618;2023-06-04T13:02:37;25.50;70.10
15355;DHT22;7777;52.254;9.618;2023-06-04T13:05:03;25.50;69.90
15355;DHT22;7777;52.254;9.618;2023-06-04T13:07:29;25.60;69.10
15355;DHT22;7777;52.254;9.618;2023-06-04T13:09:55;25.60;69.10
15355;DHT22;7777;52.254;9.618;2023-06-04T13:12:21;25.60;67.70
15355;DHT22;7777;52.254;9.618;2023-06-04T13:14:47;25.60;68.20
15355;DHT22;7777;52.254;9.618;2023-06-04T13:17:12;25.60;68.70
15355;DHT22;7777;52.254;9.618;2023-06-04T13:19:38;25.60;68.00
15355;DHT22;7777;52.254;9.618;2023-06-04T13:22:04;25.70;69.40
15355;DHT22;7777;52.254;9.618;2023-06-04T13:24:30;25.80;70.70
15355;DHT22;7777;52.254;9.618;2023-06-04T13:26:56;25.80;65.20
15355;DHT22;7777;52.254;9.618;2023-06-04T13:29:23;25.80;68.60
15355;DHT22;7777;52.254;9.618;2023-06-04T13:31:49;25.80;70.90
15355;DHT22;7777;52.254;9.618;2023-06-04T13:34:15;25.90;69.30
15355;DHT22;7777;52.254;9.618;2023-06-04T13:36:41;25.90;65.40
15355;DHT22;7777;52.254;9.618;2023-06-04T13:39:06;25.90;68.50
15355;DHT22;7777;52.254;9.618;2023-06-04T13:41:32;25.90;69.80
15355;DHT22;7777;52.254;9.618;2023-06-04T13:43:58;25.80;65.10
15355;DHT22;7777;52.254;9.618;2023-06-04T13:46:23;25.90;67.90
15355;DHT22;7777;52.254;9.618;2023-06-04T13:48:49;25.90;67.60
15355;DHT22;7777;52.254;9.618;2023-06-04T13:51:15;25.80;69.10
15355;DHT22;7777;52.254;9.618;2023-06-04T13:53:41;25.80;68.70
15355;DHT22;7777;52.254;9.618;2023-06-04T13:56:06;25.80;68.80
15355;DHT22;7777;52.254;9.618;2023-06-04T13:58:32;25.80;68.10
15355;DHT22;7777;52.254;9.618;2023-06-04T14:00:58;25.80;70.40
15355;DHT22;7777;52.254;9.618;2023-06-04T14:03:23;25.80;69.60
15355;DHT22;7777;52.254;9.618;2023-06-04T14:05:49;25.80;69.50
15355;DHT22;7777;52.254;9.618;2023-06-04T14:08:15;25.70;66.00
15355;DHT22;7777;52.254;9.618;2023-06-04T14:10:41;25.70;68.80
15355;DHT22;7777;52.254;9.618;2023-06-04T14:16:57;25.70;70.40
15355;DHT22;7777;52.254;9.618;2023-06-04T14:19:23;25.60;70.10
15355;DHT22;7777;52.254;9.618;2023-06-04T14:21:48;25.50;67.30
15355;DHT22;7777;52.254;9.618;2023-06-04T14:24:14;25.40;67.00
15355;DHT22;7777;52.254;9.618;2023-06-04T14:26:40;25.30;65.40
15355;DHT22;7777;52.254;9.618;2023-06-04T14:29:06;25.20;65.10
15355;DHT22;7777;52.254;9.618;2023-06-04T14:31:31;25.10;66.90
15355;DHT22;7777;52.254;9.618;2023-06-04T14:33:57;25.10;66.20
15355;DHT22;7777;52.254;9.618;2023-06-04T14:36:23;24.90;64.90
15355;DHT22;7777;52.254;9.618;2023-06-04T14:38:48;24.90;64.90
15355;DHT22;7777;52.254;9.618;2023-06-04T14:41:15;24.90;65.10
15355;DHT22;7777;52.254;9.618;2023-06-04T14:43:40;24.70;64.30
15355;DHT22;7777;52.254;9.618;2023-06-04T14:46:06;24.70;63.80
15355;DHT22;7777;52.254;9.618;2023-06-04T14:48:32;24.60;64.90
15355;DHT22;7777;52.254;9.618;2023-06-04T14:50:58;24.60;67.40
15355;DHT22;7777;52.254;9.618;2023-06-04T14:53:24;24.70;67.00
15355;DHT22;7777;52.254;9.618;2023-06-04T14:55:49;24.60;65.90
15355;DHT22;7777;52.254;9.618;2023-06-04T14:58:17;24.60;65.80
15355;DHT22;7777;52.254;9.618;2023-06-04T15:00:42;24.40;63.40
15355;DHT22;7777;52.254;9.618;2023-06-04T15:03:08;24.40;62.80
15355;DHT22;7777;52.254;9.618;2023-06-04T15:05:34;24.30;64.80
15355;DHT22;7777;52.254;9.618;2023-06-04T15:08:01;24.30;65.30
15355;DHT22;7777;52.254;9.618;2023-06-04T15:10:27;24.30;65.30
15355;DHT22;7777;52.254;9.618;2023-06-04T15:12:53;24.30;66.90
15355;DHT22;7777;52.254;9.618;2023-06-04T15:15:19;24.30;67.50
15355;DHT22;7777;52.254;9.618;2023-06-04T15:17:45;24.30;66.50
15355;DHT22;7777;52.254;9.618;2023-06-04T15:20:10;24.20;67.40
15355;DHT22;7777;52.254;9.618;2023-06-04T15:22:36;24.30;68.30
15355;DHT22;7777;52.254;9.618;2023-06-04T15:25:02;24.30;67.50
15355;DHT22;7777;52.254;9.618;2023-06-04T15:27:28;24.20;66.60
15355;DHT22;7777;52.254;9.618;2023-06-04T15:29:54;24.20;65.20
15355;DHT22;7777;52.254;9.618;2023-06-04T15:32:19;24.20;67.50
15355;DHT22;7777;52.254;9.618;2023-06-04T15:34:46;24.20;66.20
15355;DHT22;7777;52.254;9.618;2023-06-04T15:37:12;24.10;66.40
15355;DHT22;7777;52.254;9.618;2023-06-04T15:39:38;24.10;65.20
15355;DHT22;7777;52.254;9.618;2023-06-04T15:42:04;24.10;66.30
15355;DHT22;7777;52.254;9.618;2023-06-04T15:44:30;24.00;64.50
15355;DHT22;7777;52.254;9.618;2023-06-04T15:46:56;24.00;66.70
15355;DHT22;7777;52.254;9.618;2023-06-04T15:49:22;24.00;66.70
15355;DHT22;7777;52.254;9.618;2023-06-04T15:51:47;23.90;63.20
15355;DHT22;7777;52.254;9.618;2023-06-04T15:54:13;23.90;66.50
15355;DHT22;7777;52.254;9.618;2023-06-04T15:56:40;23.90;65.40
15355;DHT22;7777;52.254;9.618;2023-06-04T15:59:05;23.80;66.70
15355;DHT22;7777;52.254;9.618;2023-06-04T16:01:31;23.80;66.10
15355;DHT22;7777;52.254;9.618;2023-06-04T16:03:57;23.80;66.00
15355;DHT22;7777;52.254;9.618;2023-06-04T16:06:23;23.80;66.20
15355;DHT22;7777;52.254;9.618;2023-06-04T16:08:49;23.80;65.90
15355;DHT22;7777;52.254;9.618;2023-06-04T16:11:15;23.80;66.40
15355;DHT22;7777;52.254;9.618;2023-06-04T16:13:41;23.80;67.50
15355;DHT22;7777;52.254;9.618;2023-06-04T16:16:08;23.80;67.50
15355;DHT22;7777;52.254;9.618;2023-06-04T16:18:34;23.80;67.40
15355;DHT22;7777;52.254;9.618;2023-06-04T16:21:00;23.70;67.60
15355;DHT22;7777;52.254;9.618;2023-06-04T16:23:26;23.70;66.30
15355;DHT22;7777;52.254;9.618;2023-06-04T16:25:54;23.60;66.50
15355;DHT22;7777;52.254;9.618;2023-06-04T16:28:20;23.60;66.60
15355;DHT22;7777;52.254;9.618;2023-06-04T16:30:46;23.60;67.20
15355;DHT22;7777;52.254;9.618;2023-06-04T16:33:12;23.60;67.50
15355;DHT22;7777;52.254;9.618;2023-06-04T16:35:37;23.60;67.20
15355;DHT22;7777;52.254;9.618;2023-06-04T16:38:03;23.60;67.20
15355;DHT22;7777;52.254;9.618;2023-06-04T16:40:29;23.50;67.90
15355;DHT22;7777;52.254;9.618;2023-06-04T16:42:56;23.50;68.10
15355;DHT22;7777;52.254;9.618;2023-06-04T16:45:23;23.50;67.60
15355;DHT22;7777;52.254;9.618;2023-06-04T16:47:49;23.50;67.40
15355;DHT22;7777;52.254;9.618;2023-06-04T16:50:15;23.40;66.40
15355;DHT22;7777;52.254;9.618;2023-06-04T16:52:41;23.40;66.80
15355;DHT22;7777;52.254;9.618;2023-06-04T16:55:07;23.30;64.60
15355;DHT22;7777;52.254;9.618;2023-06-04T16:57:34;23.30;66.30
15355;DHT22;7777;52.254;9.618;2023-06-04T17:00:01;23.30;67.10
15355;DHT22;7777;52.254;9.618;2023-06-04T17:02:28;23.30;67.20
15355;DHT22;7777;52.254;9.618;2023-06-04T17:04:54;23.20;66.10
15355;DHT22;7777;52.254;9.618;2023-06-04T17:07:20;23.20;67.30
15355;DHT22;7777;52.254;9.618;2023-06-04T17:09:46;23.20;66.70
15355;DHT22;7777;52.254;9.618;2023-06-04T17:12:12;23.20;67.00
15355;DHT22;7777;52.254;9.618;2023-06-04T17:14:37;23.20;66.60
15355;DHT22;7777;52.254;9.618;2023-06-04T17:17:03;23.10;66.90
15355;DHT22;7777;52.254;9.618;2023-06-04T17:19:29;23.10;67.10
15355;DHT22;7777;52.254;9.618;2023-06-04T17:21:58;23.10;67.10
15355;DHT22;7777;52.254;9.618;2023-06-04T17:24:25;23.10;68.30
15355;DHT22;7777;52.254;9.618;2023-06-04T17:26:54;23.00;67.60
15355;DHT22;7777;52.254;9.618;2023-06-04T17:29:20;23.00;67.50
15355;DHT22;7777;52.254;9.618;2023-06-04T17:31:46;23.00;67.70
15355;DHT22;7777;52.254;9.618;2023-06-04T17:34:12;23.00;67.90
15355;DHT22;7777;52.254;9.618;2023-06-04T17:36:37;23.00;67.80
15355;DHT22;7777;52.254;9.618;2023-06-04T17:39:05;22.90;68.00
15355;DHT22;7777;52.254;9.618;2023-06-04T17:41:32;22.90;68.10
15355;DHT22;7777;52.254;9.618;2023-06-04T17:43:57;22.90;68.30
15355;DHT22;7777;52.254;9.618;2023-06-04T17:46:23;22.80;68.20
15355;DHT22;7777;52.254;9.618;2023-06-04T17:48:52;22.80;68.40
15355;DHT22;7777;52.254;9.618;2023-06-04T17:51:18;22.80;68.50
15355;DHT22;7777;52.254;9.618;2023-06-04T17:53:44;22.80;68.80
15355;DHT22;7777;52.254;9.618;2023-06-04T17:56:10;22.70;68.90
15355;DHT22;7777;52.254;9.618;2023-06-04T17:58:35;22.70;68.90
15355;DHT22;7777;52.254;9.618;2023-06-04T18:01:01;22.70;69.20
15355;DHT22;7777;52.254;9.618;2023-06-04T18:03:28;22.60;69.00
15355;DHT22;7777;52.254;9.618;2023-06-04T18:05:55;22.60;69.60
15355;DHT22;7777;52.254;9.618;2023-06-04T18:08:20;22.50;69.60
15355;DHT22;7777;52.254;9.618;2023-06-04T18:10:46;22.50;69.80
15355;DHT22;7777;52.254;9.618;2023-06-04T18:13:12;22.50;69.80
15355;DHT22;7777;52.254;9.618;2023-06-04T18:15:38;22.40;69.70
15355;DHT22;7777;52.254;9.618;2023-06-04T18:18:04;22.40;69.90
15355;DHT22;7777;52.254;9.618;2023-06-04T18:20:30;22.40;70.50
15355;DHT22;7777;52.254;9.618;2023-06-04T18:22:55;22.30;70.10
15355;DHT22;7777;52.254;9.618;2023-06-04T18:25:22;22.30;70.00
15355;DHT22;7777;52.254;9.618;2023-06-04T18:27:47;22.20;70.20
15355;DHT22;7777;52.254;9.618;2023-06-04T18:30:13;22.20;70.30
15355;DHT22;7777;52.254;9.618;2023-06-04T18:32:41;22.10;70.40
15355;DHT22;7777;52.254;9.618;2023-06-04T18:35:07;22.10;70.60
15355;DHT22;7777;52.254;9.618;2023-06-04T18:37:33;22.00;70.60
15355;DHT22;7777;52.254;9.618;2023-06-04T18:39:59;22.00;70.70
15355;DHT22;7777;52.254;9.618;2023-06-04T18:42:25;21.90;70.90
15355;DHT22;7777;52.254;9.618;2023-06-04T18:44:57;21.80;71.10
15355;DHT22;7777;52.254;9.618;2023-06-04T18:47:24;21.70;71.00
15355;DHT22;7777;52.254;9.618;2023-06-04T18:49:50;21.70;71.20
15355;DHT22;7777;52.254;9.618;2023-06-04T18:52:15;21.60;71.40
15355;DHT22;7777;52.254;9.618;2023-06-04T18:54:41;21.50;71.30
15355;DHT22;7777;52.254;9.618;2023-06-04T18:57:10;21.40;71.20
15355;DHT22;7777;52.254;9.618;2023-06-04T18:59:38;21.30;71.10
15355;DHT22;7777;52.254;9.618;2023-06-04T19:02:04;21.30;71.20
15355;DHT22;7777;52.254;9.618;2023-06-04T19:04:30;21.20;71.20
15355;DHT22;7777;52.254;9.618;2023-06-04T19:06:56;21.10;71.10
15355;DHT22;7777;52.254;9.618;2023-06-04T19:09:22;21.00;71.00
15355;DHT22;7777;52.254;9.618;2023-06-04T19:11:47;20.90;71.00
15355;DHT22;7777;52.254;9.618;2023-06-04T19:14:13;20.80;70.90
15355;DHT22;7777;52.254;9.618;2023-06-04T19:16:39;20.70;71.10
15355;DHT22;7777;52.254;9.618;2023-06-04T19:19:07;20.60;70.80
15355;DHT22;7777;52.254;9.618;2023-06-04T19:21:34;20.50;70.80
15355;DHT22;7777;52.254;9.618;2023-06-04T19:24:02;20.40;70.70
15355;DHT22;7777;52.254;9.618;2023-06-04T19:26:29;20.30;70.60
15355;DHT22;7777;52.254;9.618;2023-06-04T19:28:55;20.20;70.50
15355;DHT22;7777;52.254;9.618;2023-06-04T19:31:23;20.10;70.30
15355;DHT22;7777;52.254;9.618;2023-06-04T19:33:54;20.00;70.10
15355;DHT22;7777;52.254;9.618;2023-06-04T19:36:20;19.90;70.00
15355;DHT22;7777;52.254;9.618;2023-06-04T19:38:48;19.80;69.90
15355;DHT22;7777;52.254;9.618;2023-06-04T19:41:14;19.70;69.90
15355;DHT22;7777;52.254;9.618;2023-06-04T19:43:40;19.60;70.00
15355;DHT22;7777;52.254;9.618;2023-06-04T19:46:09;19.50;70.00
15355;DHT22;7777;52.254;9.618;2023-06-04T19:48:35;19.40;69.80
15355;DHT22;7777;52.254;9.618;2023-06-04T19:51:01;19.30;69.90
15355;DHT22;7777;52.254;9.618;2023-06-04T19:53:26;19.20;69.80
15355;DHT22;7777;52.254;9.618;2023-06-04T19:55:52;19.10;69.80
15355;DHT22;7777;52.254;9.618;2023-06-04T19:58:18;19.00;69.80
15355;DHT22;7777;52.254;9.618;2023-06-04T20:00:44;18.90;69.80
15355;DHT22;7777;52.254;9.618;2023-06-04T20:03:12;18.90;69.80
15355;DHT22;7777;52.254;9.618;2023-06-04T20:05:40;18.70;69.70
15355;DHT22;7777;52.254;9.618;2023-06-04T20:08:05;18.60;69.80
15355;DHT22;7777;52.254;9.618;2023-06-04T20:10:31;18.60;69.80
15355;DHT22;7777;52.254;9.618;2023-06-04T20:12:57;18.50;69.90
15355;DHT22;7777;52.254;9.618;2023-06-04T20:15:23;18.40;69.90
15355;DHT22;7777;52.254;9.618;2023-06-04T20:17:48;18.30;70.00
15355;DHT22;7777;52.254;9.618;2023-06-04T20:20:14;18.20;70.20
15355;DHT22;7777;52.254;9.618;2023-06-04T20:22:40;18.10;70.20
15355;DHT22;7777;52.254;9.618;2023-06-04T20:25:06;18.10;70.40
15355;DHT22;7777;52.254;9.618;2023-06-04T20:27:32;18.00;70.40
15355;DHT22;7777;52.254;9.618;2023-06-04T20:29:58;17.90;70.40
15355;DHT22;7777;52.254;9.618;2023-06-04T20:32:24;17.80;70.30
15355;DHT22;7777;52.254;9.618;2023-06-04T20:34:50;17.80;70.80
15355;DHT22;7777;52.254;9.618;2023-06-04T20:37:16;17.70;70.50
15355;DHT22;7777;52.254;9.618;2023-06-04T20:39:41;17.60;70.60
15355;DHT22;7777;52.254;9.618;2023-06-04T20:42:12;17.50;70.60
15355;DHT22;7777;52.254;9.618;2023-06-04T20:44:46;17.50;70.70
15355;DHT22;7777;52.254;9.618;2023-06-04T20:47:12;17.50;70.90
15355;DHT22;7777;52.254;9.618;2023-06-04T20:49:37;17.50;71.00
15355;DHT22;7777;52.254;9.618;2023-06-04T20:52:04;17.40;71.00
15355;DHT22;7777;52.254;9.618;2023-06-04T20:54:29;17.40;71.20
15355;DHT22;7777;52.254;9.618;2023-06-04T20:56:55;17.40;71.30
15355;DHT22;7777;52.254;9.618;2023-06-04T20:59:21;17.40;71.50
15355;DHT22;7777;52.254;9.618;2023-06-04T21:01:47;17.40;71.80
15355;DHT22;7777;52.254;9.618;2023-06-04T21:04:13;17.40;72.30
15355;DHT22;7777;52.254;9.618;2023-06-04T21:06:39;17.40;72.00
15355;DHT22;7777;52.254;9.618;2023-06-04T21:09:06;17.40;72.10
15355;DHT22;7777;52.254;9.618;2023-06-04T21:11:32;17.40;72.50
15355;DHT22;7777;52.254;9.618;2023-06-04T21:13:58;17.50;72.30
15355;DHT22;7777;52.254;9.618;2023-06-04T21:16:24;17.40;72.30
15355;DHT22;7777;52.254;9.618;2023-06-04T21:18:53;17.40;72.30
15355;DHT22;7777;52.254;9.618;2023-06-04T21:21:18;17.40;72.40
15355;DHT22;7777;52.254;9.618;2023-06-04T21:23:44;17.40;72.70
15355;DHT22;7777;52.254;9.618;2023-06-04T21:26:10;17.40;72.80
15355;DHT22;7777;52.254;9.618;2023-06-04T21:28:36;17.40;72.80
15355;DHT22;7777;52.254;9.618;2023-06-04T21:31:01;17.40;72.80
15355;DHT22;7777;52.254;9.618;2023-06-04T21:33:27;17.40;73.10
15355;DHT22;7777;52.254;9.618;2023-06-04T21:35:53;17.40;72.90
15355;DHT22;7777;52.254;9.618;2023-06-04T21:38:19;17.40;72.90
15355;DHT22;7777;52.254;9.618;2023-06-04T21:40:45;17.40;73.00
15355;DHT22;7777;52.254;9.618;2023-06-04T21:43:10;17.40;73.10
15355;DHT22;7777;52.254;9.618;2023-06-04T21:45:36;17.40;73.10
15355;DHT22;7777;52.254;9.618;2023-06-04T21:48:02;17.30;73.00
15355;DHT22;7777;52.254;9.618;2023-06-04T21:50:28;17.30;73.20
15355;DHT22;7777;52.254;9.618;2023-06-04T21:52:54;17.30;73.10
15355;DHT22;7777;52.254;9.618;2023-06-04T21:55:20;17.30;73.20
15355;DHT22;7777;52.254;9.618;2023-06-04T21:57:45;17.30;73.40
15355;DHT22;7777;52.254;9.618;2023-06-04T22:00:11;17.20;73.20
15355;DHT22;7777;52.254;9.618;2023-06-04T22:02:38;17.20;73.30
15355;DHT22;7777;52.254;9.618;2023-06-04T22:05:05;17.10;73.20
15355;DHT22;7777;52.254;9.618;2023-06-04T22:07:31;17.10;73.30
15355;DHT22;7777;52.254;9.618;2023-06-04T22:09:57;17.10;73.30
15355;DHT22;7777;52.254;9.618;2023-06-04T22:12:22;17.10;73.50
15355;DHT22;7777;52.254;9.618;2023-06-04T22:14:49;17.00;73.40
15355;DHT22;7777;52.254;9.618;2023-06-04T22:17:15;17.00;73.50
15355;DHT22;7777;52.254;9.618;2023-06-04T22:19:41;17.00;73.50
15355;DHT22;7777;52.254;9.618;2023-06-04T22:22:07;16.90;73.40
15355;DHT22;7777;52.254;9.618;2023-06-04T22:24:33;16.90;73.50
15355;DHT22;7777;52.254;9.618;2023-06-04T22:26:59;16.90;73.50
15355;DHT22;7777;52.254;9.618;2023-06-04T22:29:24;16.80;73.30
15355;DHT22;7777;52.254;9.618;2023-06-04T22:31:50;16.80;73.60
15355;DHT22;7777;52.254;9.618;2023-06-04T22:34:16;16.80;73.50
15355;DHT22;7777;52.254;9.618;2023-06-04T22:36:42;16.70;73.40
15355;DHT22;7777;52.254;9.618;2023-06-04T22:39:10;16.70;73.60
15355;DHT22;7777;52.254;9.618;2023-06-04T22:41:36;16.60;73.60
15355;DHT22;7777;52.254;9.618;2023-06-04T22:44:02;16.60;73.60
15355;DHT22;7777;52.254;9.618;2023-06-04T22:46:28;16.60;73.60
15355;DHT22;7777;52.254;9.618;2023-06-04T22:48:54;16.50;73.50
15355;DHT22;7777;52.254;9.618;2023-06-04T22:51:20;16.40;73.40
15355;DHT22;7777;52.254;9.618;2023-06-04T22:53:48;16.40;73.60
15355;DHT22;7777;52.254;9.618;2023-06-04T22:56:14;16.40;73.60
15355;DHT22;7777;52.254;9.618;2023-06-04T22:58:41;16.30;73.60
15355;DHT22;7777;52.254;9.618;2023-06-04T23:01:07;16.30;73.60
15355;DHT22;7777;52.254;9.618;2023-06-04T23:03:33;16.30;73.70
15355;DHT22;7777;52.254;9.618;2023-06-04T23:05:59;16.20;73.70
15355;DHT22;7777;52.254;9.618;2023-06-04T23:08:28;16.20;73.60
15355;DHT22;7777;52.254;9.618;2023-06-04T23:10:53;16.10;73.60
15355;DHT22;7777;52.254;9.618;2023-06-04T23:13:19;16.10;73.80
15355;DHT22;7777;52.254;9.618;2023-06-04T23:15:45;16.10;73.70
15355;DHT22;7777;52.254;9.618;2023-06-04T23:18:11;16.00;73.60
15355;DHT22;7777;52.254;9.618;2023-06-04T23:20:37;16.00;73.70
15355;DHT22;7777;52.254;9.618;2023-06-04T23:23:03;16.00;73.70
15355;DHT22;7777;52.254;9.618;2023-06-04T23:25:28;15.90;73.80
15355;DHT22;7777;52.254;9.618;2023-06-04T23:27:54;15.80;73.70
15355;DHT22;7777;52.254;9.618;2023-06-04T23:30:20;15.80;73.70
15355;DHT22;7777;52.254;9.618;2023-06-04T23:32:46;15.80;73.80
15355;DHT22;7777;52.254;9.618;2023-06-04T23:35:12;15.80;73.80
15355;DHT22;7777;52.254;9.618;2023-06-04T23:37:38;15.70;73.80
15355;DHT22;7777;52.254;9.618;2023-06-04T23:40:05;15.70;73.80
15355;DHT22;7777;52.254;9.618;2023-06-04T23:42:32;15.60;73.80
15355;DHT22;7777;52.254;9.618;2023-06-04T23:44:58;15.60;73.90
15355;DHT22;7777;52.254;9.618;2023-06-04T23:47:25;15.60;74.00
15355;DHT22;7777;52.254;9.618;2023-06-04T23:49:51;15.50;73.90
15355;DHT22;7777;52.254;9.618;2023-06-04T23:52:17;15.50;73.90
15355;DHT22;7777;52.254;9.618;2023-06-04T23:54:43;15.40;73.90
15355;DHT22;7777;52.254;9.618;2023-06-04T23:57:09;15.40;73.90
15355;DHT22;7777;52.254;9.618;2023-06-04T23:59:35;15.40;74.00
